Time;durP1;ratioP1;P1;durP2;ratioP2;P2;SDS_P1;SDS_P2;PMS_P1;PMS_P2;Temp;Humidity;BMP_temperature;BMP_pressure;BME280_temperature;BME280_humidity;BME280_pressure;Samples;Min_cycle;Max_cycle;Signal;HPM_P1;HPM_P2
2023/10/26 00:02:14;;;;;;;25.70;17.10;;;;;;;;;;5144348;27;20051;-58
2023/10/26 00:04:40;;;;;;;25.42;14.95;;;;;;;;;;5135774;27;20837;-56
2023/10/26 00:07:07;;;;;;;25.63;15.38;;;;;;;;;;5136975;27;20078;-57
2023/10/26 00:09:33;;;;;;;26.10;16.60;;;;;;;;;;5137455;27;20864;-57
2023/10/26 00:12:00;;;;;;;23.63;15.57;;;;;;;;;;5124074;27;20055;-56
2023/10/26 00:14:26;;;;;;;26.63;16.48;;;;;;;;;;5136077;27;20076;-57
2023/10/26 00:16:52;;;;;;;23.95;15.93;;;;;;;;;;5143266;27;20086;-57
2023/10/26 00:19:20;;;;;;;24.77;17.42;;;;;;;;;;5143484;27;20466;-56
2023/10/26 00:21:46;;;;;;;27.30;16.02;;;;;;;;;;5140572;27;20208;-56
2023/10/26 00:24:13;;;;;;;25.25;16.33;;;;;;;;;;5124938;27;20052;-58
2023/10/26 00:26:40;;;;;;;28.80;16.63;;;;;;;;;;5135084;27;20625;-57
2023/10/26 00:29:07;;;;;;;24.63;16.15;;;;;;;;;;5143124;27;20043;-57
2023/10/26 00:31:33;;;;;;;24.33;16.10;;;;;;;;;;5143097;27;20131;-58
2023/10/26 00:34:00;;;;;;;26.20;16.00;;;;;;;;;;5131605;27;20048;-56
2023/10/26 00:36:26;;;;;;;28.67;17.00;;;;;;;;;;5143112;27;20210;-53
2023/10/26 00:38:52;;;;;;;30.20;17.50;;;;;;;;;;5129351;27;20055;-58
2023/10/26 00:41:19;;;;;;;25.13;17.27;;;;;;;;;;5135201;27;20054;-55
2023/10/26 00:43:47;;;;;;;34.25;16.63;;;;;;;;;;5143799;27;20573;-57
2023/10/26 00:46:14;;;;;;;27.98;18.60;;;;;;;;;;5125025;27;20059;-51
2023/10/26 00:48:40;;;;;;;28.10;18.50;;;;;;;;;;5139457;27;20648;-58
2023/10/26 00:51:08;;;;;;;30.00;17.50;;;;;;;;;;5133632;27;20066;-56
2023/10/26 00:53:34;;;;;;;24.10;15.48;;;;;;;;;;5125632;27;20051;-57
2023/10/26 00:56:01;;;;;;;28.10;16.30;;;;;;;;;;5143183;27;20629;-55
2023/10/26 00:58:29;;;;;;;29.25;16.17;;;;;;;;;;5125234;27;20052;-54
2023/10/26 01:00:55;;;;;;;28.65;16.13;;;;;;;;;;5122646;27;20089;-54
2023/10/26 01:03:23;;;;;;;29.58;16.80;;;;;;;;;;5125414;27;20051;-58
2023/10/26 01:05:49;;;;;;;31.75;17.63;;;;;;;;;;5138444;27;20052;-55
2023/10/26 01:08:16;;;;;;;26.20;17.23;;;;;;;;;;5143019;27;20485;-56
2023/10/26 01:10:42;;;;;;;28.67;17.08;;;;;;;;;;5143329;27;20059;-57
2023/10/26 01:13:09;;;;;;;27.60;17.15;;;;;;;;;;5132611;27;20108;-56
2023/10/26 01:15:36;;;;;;;30.83;16.63;;;;;;;;;;5127274;27;20555;-57
2023/10/26 01:18:02;;;;;;;27.20;16.35;;;;;;;;;;5147353;27;20532;-57
2023/10/26 01:20:29;;;;;;;26.63;17.65;;;;;;;;;;5143310;27;20056;-57
2023/10/26 01:22:56;;;;;;;29.10;17.58;;;;;;;;;;5117445;27;20048;-56
2023/10/26 01:25:22;;;;;;;34.45;19.60;;;;;;;;;;5130944;27;20594;-57
2023/10/26 01:27:48;;;;;;;29.90;18.23;;;;;;;;;;5127725;27;20178;-49
2023/10/26 01:30:16;;;;;;;30.85;18.20;;;;;;;;;;5126761;27;20055;-55
2023/10/26 01:32:43;;;;;;;30.88;17.88;;;;;;;;;;5139104;27;20067;-57
2023/10/26 01:35:10;;;;;;;34.53;19.23;;;;;;;;;;5135228;27;20055;-55
2023/10/26 01:37:37;;;;;;;33.33;17.65;;;;;;;;;;5126463;27;20079;-58
2023/10/26 01:40:04;;;;;;;30.05;18.90;;;;;;;;;;5127918;27;20051;-57
2023/10/26 01:42:30;;;;;;;31.75;18.42;;;;;;;;;;5140754;27;20074;-57
2023/10/26 01:44:57;;;;;;;35.58;18.90;;;;;;;;;;5131097;27;20511;-56
2023/10/26 01:47:23;;;;;;;30.42;19.27;;;;;;;;;;5129895;27;20047;-58
2023/10/26 01:49:50;;;;;;;32.15;20.10;;;;;;;;;;5147040;27;20524;-54
2023/10/26 01:52:16;;;;;;;31.52;18.77;;;;;;;;;;5126690;27;20047;-57
2023/10/26 01:54:42;;;;;;;34.22;19.33;;;;;;;;;;5136653;27;20134;-57
2023/10/26 01:57:09;;;;;;;31.00;19.38;;;;;;;;;;5144653;27;20136;-56
2023/10/26 01:59:36;;;;;;;30.15;18.63;;;;;;;;;;5126464;27;20048;-58
2023/10/26 02:02:02;;;;;;;30.80;18.35;;;;;;;;;;5145119;27;20874;-50
2023/10/26 02:04:29;;;;;;;32.92;19.38;;;;;;;;;;5132240;27;20052;-56
2023/10/26 02:06:55;;;;;;;35.30;20.67;;;;;;;;;;5132148;27;20506;-56
2023/10/26 02:09:22;;;;;;;30.30;18.35;;;;;;;;;;5144828;27;20058;-56
2023/10/26 02:11:48;;;;;;;32.83;19.10;;;;;;;;;;5107891;27;20133;-57
2023/10/26 02:14:15;;;;;;;37.78;20.80;;;;;;;;;;5139959;27;20135;-57
2023/10/26 02:16:41;;;;;;;36.17;19.85;;;;;;;;;;5144988;27;20055;-58
2023/10/26 02:19:08;;;;;;;33.40;18.63;;;;;;;;;;5143136;27;20134;-54
2023/10/26 02:21:35;;;;;;;29.42;17.38;;;;;;;;;;5125496;27;20072;-57
2023/10/26 02:24:01;;;;;;;33.60;19.88;;;;;;;;;;5138232;27;20051;-57
2023/10/26 02:26:28;;;;;;;30.20;18.38;;;;;;;;;;5130958;27;20109;-54
2023/10/26 02:28:54;;;;;;;35.35;19.70;;;;;;;;;;5129246;27;20078;-56
2023/10/26 02:31:21;;;;;;;34.35;18.77;;;;;;;;;;5137551;27;20055;-57
2023/10/26 02:33:48;;;;;;;31.60;18.40;;;;;;;;;;5125046;27;20913;-58
2023/10/26 02:36:14;;;;;;;35.42;19.02;;;;;;;;;;5125043;27;20071;-56
2023/10/26 02:38:40;;;;;;;34.80;18.73;;;;;;;;;;5124786;27;20539;-57
2023/10/26 02:41:07;;;;;;;37.30;18.90;;;;;;;;;;5124630;27;20051;-54
2023/10/26 02:43:34;;;;;;;35.45;20.30;;;;;;;;;;5141552;27;20058;-58
2023/10/26 02:46:01;;;;;;;35.88;19.17;;;;;;;;;;5145308;27;20491;-57
2023/10/26 02:48:28;;;;;;;30.70;18.40;;;;;;;;;;5141143;27;20691;-56
2023/10/26 02:50:55;;;;;;;34.42;19.95;;;;;;;;;;5141896;27;20508;-58
2023/10/26 02:53:22;;;;;;;41.85;19.48;;;;;;;;;;5125116;27;20044;-58
2023/10/26 02:55:48;;;;;;;33.08;19.98;;;;;;;;;;5127459;27;20051;-55
2023/10/26 02:58:15;;;;;;;37.53;19.38;;;;;;;;;;5124889;27;20578;-57
2023/10/26 03:00:41;;;;;;;42.35;21.33;;;;;;;;;;5129827;27;20055;-56
2023/10/26 03:03:08;;;;;;;35.97;19.73;;;;;;;;;;5145696;27;20047;-57
2023/10/26 03:05:35;;;;;;;54.08;21.77;;;;;;;;;;5141551;27;20051;-58
2023/10/26 03:08:02;;;;;;;54.20;22.08;;;;;;;;;;5144668;27;20051;-52
2023/10/26 03:10:28;;;;;;;83.32;24.80;;;;;;;;;;5145161;27;20055;-56
2023/10/26 03:12:55;;;;;;;54.33;23.08;;;;;;;;;;5145226;27;20055;-58
2023/10/26 03:15:21;;;;;;;41.45;21.50;;;;;;;;;;5129171;27;20522;-57
2023/10/26 03:17:48;;;;;;;57.15;23.55;;;;;;;;;;5134840;27;20058;-58
2023/10/26 03:20:14;;;;;;;48.67;22.30;;;;;;;;;;5141622;27;20604;-50
2023/10/26 03:22:41;;;;;;;65.50;23.73;;;;;;;;;;5136718;27;20139;-58
2023/10/26 03:25:07;;;;;;;66.32;22.63;;;;;;;;;;5126698;27;20130;-56
2023/10/26 03:27:33;;;;;;;53.90;23.98;;;;;;;;;;5128018;27;20146;-56
2023/10/26 03:30:00;;;;;;;49.58;23.27;;;;;;;;;;5132737;27;20055;-57
2023/10/26 03:32:26;;;;;;;187.55;29.17;;;;;;;;;;5139592;27;20083;-56
2023/10/26 03:34:53;;;;;;;64.30;23.70;;;;;;;;;;5122274;27;20058;-57
2023/10/26 03:37:19;;;;;;;64.65;22.70;;;;;;;;;;5116821;27;20500;-57
2023/10/26 03:39:46;;;;;;;51.67;23.85;;;;;;;;;;5123545;27;20097;-55
2023/10/26 03:42:12;;;;;;;52.83;24.58;;;;;;;;;;5123339;27;20063;-56
2023/10/26 03:44:38;;;;;;;62.80;22.85;;;;;;;;;;5132275;27;20515;-57
2023/10/26 03:47:05;;;;;;;48.72;23.08;;;;;;;;;;5124298;27;20498;-57
2023/10/26 03:49:32;;;;;;;72.90;24.38;;;;;;;;;;5138460;27;20051;-56
2023/10/26 03:51:59;;;;;;;56.70;22.75;;;;;;;;;;5143323;27;20568;-58
2023/10/26 03:54:25;;;;;;;92.97;22.98;;;;;;;;;;5129683;27;20509;-57
2023/10/26 03:56:52;;;;;;;306.75;34.42;;;;;;;;;;5144433;27;20058;-59
2023/10/26 03:59:18;;;;;;;78.20;22.65;;;;;;;;;;5127836;27;20998;-57
2023/10/26 04:01:45;;;;;;;81.68;23.85;;;;;;;;;;5123366;27;20055;-56
2023/10/26 04:04:11;;;;;;;137.55;25.70;;;;;;;;;;5126961;27;20063;-57
2023/10/26 04:06:38;;;;;;;221.05;30.65;;;;;;;;;;5144014;27;20504;-57
2023/10/26 04:09:04;;;;;;;120.50;24.75;;;;;;;;;;5143550;27;20151;-55
2023/10/26 04:11:31;;;;;;;147.15;25.35;;;;;;;;;;5143763;27;20502;-57
2023/10/26 04:13:57;;;;;;;85.75;23.90;;;;;;;;;;5138500;27;20508;-55
2023/10/26 04:16:24;;;;;;;104.32;24.83;;;;;;;;;;5124152;27;20055;-56
2023/10/26 04:18:51;;;;;;;227.23;30.20;;;;;;;;;;5138655;27;20051;-56
2023/10/26 04:21:17;;;;;;;121.40;26.48;;;;;;;;;;5123711;27;20502;-57
2023/10/26 04:23:44;;;;;;;75.10;24.75;;;;;;;;;;5136696;27;20109;-58
2023/10/26 04:26:12;;;;;;;57.47;23.45;;;;;;;;;;5125368;27;20051;-57
2023/10/26 04:28:40;;;;;;;136.88;25.45;;;;;;;;;;5141354;27;20264;-58
2023/10/26 04:31:17;;;;;;;100.40;24.55;;;;;;;;;;5141556;27;20047;-56
2023/10/26 04:33:43;;;;;;;76.18;23.17;;;;;;;;;;5130432;27;20058;-58
2023/10/26 04:36:09;;;;;;;173.55;28.30;;;;;;;;;;5130427;27;20056;-57
2023/10/26 04:38:36;;;;;;;96.97;25.10;;;;;;;;;;5123676;27;20059;-56
2023/10/26 04:41:02;;;;;;;62.38;23.52;;;;;;;;;;5138802;27;20096;-58
2023/10/26 04:43:29;;;;;;;98.95;23.83;;;;;;;;;;5142906;27;20050;-56
2023/10/26 04:45:55;;;;;;;63.60;20.38;;;;;;;;;;5131117;27;20079;-54
2023/10/26 04:48:22;;;;;;;62.92;21.13;;;;;;;;;;5142750;27;20055;-57
2023/10/26 04:50:49;;;;;;;88.65;22.02;;;;;;;;;;5141988;27;20077;-58
2023/10/26 04:53:15;;;;;;;81.70;20.50;;;;;;;;;;5126283;27;20138;-58
2023/10/26 04:55:42;;;;;;;171.80;25.35;;;;;;;;;;5146111;27;20051;-55
2023/10/26 04:58:08;;;;;;;47.25;20.52;;;;;;;;;;5145573;27;20047;-55
2023/10/26 05:00:35;;;;;;;61.58;21.90;;;;;;;;;;5147807;27;20055;-58
2023/10/26 05:03:02;;;;;;;66.95;21.35;;;;;;;;;;5146300;27;20466;-56
2023/10/26 05:05:28;;;;;;;68.03;19.33;;;;;;;;;;5145555;27;20071;-55
2023/10/26 05:07:55;;;;;;;157.25;27.02;;;;;;;;;;5146752;27;20055;-58
2023/10/26 05:10:21;;;;;;;105.97;23.48;;;;;;;;;;5146089;27;20555;-57
2023/10/26 05:12:48;;;;;;;183.90;26.45;;;;;;;;;;5146400;27;20059;-56
2023/10/26 05:15:14;;;;;;;145.85;22.98;;;;;;;;;;5145533;27;20062;-58
2023/10/26 05:17:41;;;;;;;158.07;23.92;;;;;;;;;;5138939;27;20181;-56
2023/10/26 05:20:09;;;;;;;112.22;23.98;;;;;;;;;;5140010;27;20057;-57
2023/10/26 05:22:35;;;;;;;159.95;25.27;;;;;;;;;;5147161;27;20504;-58
2023/10/26 05:25:04;;;;;;;128.55;23.75;;;;;;;;;;5136800;27;20581;-55
2023/10/26 05:27:32;;;;;;;114.90;22.63;;;;;;;;;;5134641;27;20055;-56
2023/10/26 05:30:01;;;;;;;189.70;27.90;;;;;;;;;;5124362;27;20160;-58
2023/10/26 05:32:27;;;;;;;152.27;22.52;;;;;;;;;;5108219;27;20128;-57
2023/10/26 05:34:54;;;;;;;211.45;28.70;;;;;;;;;;5125650;27;20056;-54
2023/10/26 05:37:20;;;;;;;122.75;21.40;;;;;;;;;;5142557;27;20056;-56
2023/10/26 05:39:47;;;;;;;112.47;23.20;;;;;;;;;;5139814;27;20117;-57
2023/10/26 05:42:13;;;;;;;99.20;21.77;;;;;;;;;;5137381;27;20067;-57
2023/10/26 05:44:39;;;;;;;68.35;19.65;;;;;;;;;;5144052;27;20058;-58
2023/10/26 05:47:06;;;;;;;83.03;21.83;;;;;;;;;;5136469;27;20055;-58
2023/10/26 05:49:33;;;;;;;103.65;22.65;;;;;;;;;;5143666;27;20043;-55
2023/10/26 05:52:01;;;;;;;61.28;19.70;;;;;;;;;;5133457;27;20497;-57
2023/10/26 05:54:28;;;;;;;85.55;21.17;;;;;;;;;;5129189;27;20530;-57
2023/10/26 05:56:54;;;;;;;62.45;19.00;;;;;;;;;;5128642;27;20051;-51
2023/10/26 05:59:21;;;;;;;59.45;18.13;;;;;;;;;;5124105;27;20529;-57
2023/10/26 06:01:47;;;;;;;69.45;20.20;;;;;;;;;;5127077;27;20105;-57
2023/10/26 06:04:14;;;;;;;56.40;20.50;;;;;;;;;;5126161;27;20079;-57
2023/10/26 06:06:40;;;;;;;94.35;20.50;;;;;;;;;;5138226;27;20599;-58
2023/10/26 06:09:07;;;;;;;55.80;19.98;;;;;;;;;;5119267;27;20056;-56
2023/10/26 06:11:33;;;;;;;74.70;20.50;;;;;;;;;;5137573;27;20052;-56
2023/10/26 06:14:00;;;;;;;52.30;19.77;;;;;;;;;;5124374;27;20047;-56
2023/10/26 06:16:26;;;;;;;94.50;19.60;;;;;;;;;;5126045;27;20505;-58
2023/10/26 06:18:53;;;;;;;80.97;19.83;;;;;;;;;;5129081;27;20059;-57
2023/10/26 06:21:19;;;;;;;53.42;18.27;;;;;;;;;;5123983;27;20060;-57
2023/10/26 06:23:46;;;;;;;80.18;19.95;;;;;;;;;;5125142;27;20083;-57
2023/10/26 06:26:12;;;;;;;53.10;19.13;;;;;;;;;;5124667;27;20055;-58
2023/10/26 06:28:39;;;;;;;56.30;21.20;;;;;;;;;;5137663;27;20095;-55
2023/10/26 06:31:09;;;;;;;62.90;19.65;;;;;;;;;;5124718;27;20058;-57
2023/10/26 06:33:36;;;;;;;59.17;20.30;;;;;;;;;;5129237;27;20497;-58
2023/10/26 06:36:03;;;;;;;40.92;18.98;;;;;;;;;;5128179;27;20060;-56
2023/10/26 06:38:29;;;;;;;36.40;18.50;;;;;;;;;;5125666;27;20131;-57
2023/10/26 06:40:56;;;;;;;55.00;18.20;;;;;;;;;;5134767;27;20168;-55
2023/10/26 06:43:23;;;;;;;48.35;18.40;;;;;;;;;;5124613;27;20413;-57
2023/10/26 06:45:50;;;;;;;52.00;18.65;;;;;;;;;;5128759;27;20508;-56
2023/10/26 06:48:18;;;;;;;77.47;19.95;;;;;;;;;;5124512;27;20082;-58
2023/10/26 06:50:45;;;;;;;138.57;24.17;;;;;;;;;;5140489;27;20081;-56
2023/10/26 06:53:12;;;;;;;47.10;18.50;;;;;;;;;;5123995;27;20086;-57
2023/10/26 06:55:38;;;;;;;81.43;19.42;;;;;;;;;;5128752;27;20633;-57
2023/10/26 06:58:05;;;;;;;158.65;22.02;;;;;;;;;;5125276;27;20151;-56
2023/10/26 07:00:31;;;;;;;52.80;17.10;;;;;;;;;;5130071;27;20051;-58
2023/10/26 07:02:58;;;;;;;78.32;18.85;;;;;;;;;;5142780;27;20233;-56
2023/10/26 07:05:25;;;;;;;121.28;20.95;;;;;;;;;;5127266;27;20047;-59
2023/10/26 07:07:52;;;;;;;95.78;19.90;;;;;;;;;;5124364;27;20538;-58
2023/10/26 07:10:19;;;;;;;55.72;17.13;;;;;;;;;;5129031;27;20048;-58
2023/10/26 07:12:46;;;;;;;127.40;21.13;;;;;;;;;;5132766;27;20101;-56
2023/10/26 07:15:13;;;;;;;87.35;20.35;;;;;;;;;;5134169;27;20104;-57
2023/10/26 07:17:39;;;;;;;93.10;19.17;;;;;;;;;;5138401;27;20062;-57
2023/10/26 07:20:07;;;;;;;63.80;18.23;;;;;;;;;;5124833;27;20533;-57
2023/10/26 07:22:34;;;;;;;58.15;19.42;;;;;;;;;;5133263;27;20108;-58
2023/10/26 07:25:02;;;;;;;68.00;17.75;;;;;;;;;;5137736;27;20127;-57
2023/10/26 07:27:28;;;;;;;49.58;16.38;;;;;;;;;;5131632;27;20052;-59
2023/10/26 07:29:55;;;;;;;44.00;17.08;;;;;;;;;;5126509;27;20135;-57
2023/10/26 07:32:21;;;;;;;28.50;16.13;;;;;;;;;;5129470;27;20501;-58
2023/10/26 07:34:47;;;;;;;81.35;18.58;;;;;;;;;;5135428;27;20062;-56
2023/10/26 07:37:14;;;;;;;71.40;17.35;;;;;;;;;;5136690;27;20109;-56
2023/10/26 07:39:40;;;;;;;70.47;18.55;;;;;;;;;;5134735;27;20057;-55
2023/10/26 07:42:27;;;;;;;36.25;15.63;;;;;;;;;;5132205;27;20047;-56
2023/10/26 07:44:53;;;;;;;46.72;15.27;;;;;;;;;;5129136;27;20105;-55
2023/10/26 07:47:20;;;;;;;45.75;15.77;;;;;;;;;;5135333;27;20134;-57
2023/10/26 07:49:46;;;;;;;70.25;16.77;;;;;;;;;;5143368;27;20136;-56
2023/10/26 07:52:14;;;;;;;36.38;15.40;;;;;;;;;;5135037;27;20055;-54
2023/10/26 07:54:40;;;;;;;37.47;16.90;;;;;;;;;;5125066;27;20134;-57
2023/10/26 07:57:06;;;;;;;43.03;15.27;;;;;;;;;;5129321;27;20226;-54
2023/10/26 07:59:33;;;;;;;64.50;18.33;;;;;;;;;;5140266;27;20517;-58
2023/10/26 08:02:00;;;;;;;35.42;14.98;;;;;;;;;;5137406;27;20442;-55
2023/10/26 08:04:29;;;;;;;62.47;16.48;;;;;;;;;;5126433;27;20562;-56
2023/10/26 08:06:56;;;;;;;81.93;16.50;;;;;;;;;;5135543;27;20525;-57
2023/10/26 08:09:22;;;;;;;62.35;18.48;;;;;;;;;;5139070;27;20047;-56
2023/10/26 08:11:49;;;;;;;71.03;16.80;;;;;;;;;;5136510;27;20087;-54
2023/10/26 08:14:15;;;;;;;53.20;16.00;;;;;;;;;;5143607;27;20785;-57
2023/10/26 08:17:02;;;;;;;47.38;16.38;;;;;;;;;;5135998;27;20048;-57
2023/10/26 08:19:28;;;;;;;33.75;16.52;;;;;;;;;;5122846;27;20901;-57
2023/10/26 08:21:55;;;;;;;35.58;17.33;;;;;;;;;;5128672;27;20060;-58
2023/10/26 08:24:21;;;;;;;60.08;15.75;;;;;;;;;;5123316;27;20071;-57
2023/10/26 08:26:49;;;;;;;35.95;15.02;;;;;;;;;;5125320;27;20051;-58
2023/10/26 08:29:15;;;;;;;30.48;14.95;;;;;;;;;;5122731;27;20117;-56
2023/10/26 08:31:53;;;;;;;28.90;15.15;;;;;;;;;;5123090;27;20458;-56
2023/10/26 08:34:20;;;;;;;26.80;14.65;;;;;;;;;;5126950;27;20146;-56
2023/10/26 08:36:47;;;;;;;28.08;15.40;;;;;;;;;;5122859;27;20047;-57
2023/10/26 08:39:34;;;;;;;65.65;14.98;;;;;;;;;;5123343;27;20540;-57
2023/10/26 08:42:01;;;;;;;34.25;16.48;;;;;;;;;;5133841;27;20614;-57
2023/10/26 08:44:28;;;;;;;33.28;15.48;;;;;;;;;;5125200;27;20059;-57
2023/10/26 08:47:00;;;;;;;40.67;16.40;;;;;;;;;;5138559;27;20047;-56
2023/10/26 08:49:26;;;;;;;77.93;17.55;;;;;;;;;;5122604;27;20102;-58
2023/10/26 08:51:53;;;;;;;30.98;15.45;;;;;;;;;;5119284;27;20055;-56
2023/10/26 08:54:20;;;;;;;27.30;15.52;;;;;;;;;;5116816;27;20051;-57
2023/10/26 08:56:46;;;;;;;33.75;14.88;;;;;;;;;;5128338;27;20529;-58
2023/10/26 08:59:13;;;;;;;32.80;14.63;;;;;;;;;;5140907;27;20047;-57
2023/10/26 09:01:39;;;;;;;35.17;15.18;;;;;;;;;;5122296;27;20058;-59
2023/10/26 09:04:09;;;;;;;30.52;14.77;;;;;;;;;;5129706;27;20048;-59
2023/10/26 09:06:42;;;;;;;21.98;14.68;;;;;;;;;;5127809;27;20059;-58
2023/10/26 09:09:09;;;;;;;28.27;13.52;;;;;;;;;;5121676;27;20079;-57
2023/10/26 09:11:35;;;;;;;19.77;14.60;;;;;;;;;;5122767;27;20075;-58
2023/10/26 09:14:11;;;;;;;23.70;14.25;;;;;;;;;;5122045;27;20048;-57
2023/10/26 09:16:38;;;;;;;21.65;13.05;;;;;;;;;;5123054;27;20304;-58
2023/10/26 09:19:04;;;;;;;26.40;14.10;;;;;;;;;;5103979;27;20059;-57
2023/10/26 09:21:46;;;;;;;23.40;13.20;;;;;;;;;;5122316;27;20563;-58
2023/10/26 09:24:21;;;;;;;19.60;13.45;;;;;;;;;;5122571;27;20431;-55
2023/10/26 09:26:48;;;;;;;23.20;13.88;;;;;;;;;;5124512;27;20056;-56
2023/10/26 09:29:14;;;;;;;19.25;12.65;;;;;;;;;;5121829;27;20629;-58
2023/10/26 09:31:52;;;;;;;20.05;13.00;;;;;;;;;;5121656;27;20638;-58
2023/10/26 09:34:21;;;;;;;20.80;13.43;;;;;;;;;;5105274;27;20494;-56
2023/10/26 09:37:01;;;;;;;20.00;13.00;;;;;;;;;;5129591;27;20094;-56
2023/10/26 09:39:28;;;;;;;20.25;13.60;;;;;;;;;;5143729;27;20129;-57
2023/10/26 09:41:55;;;;;;;22.52;14.45;;;;;;;;;;5128804;27;20044;-57
2023/10/26 09:44:22;;;;;;;19.95;13.82;;;;;;;;;;5125197;27;20051;-58
2023/10/26 09:46:49;;;;;;;21.30;13.45;;;;;;;;;;5134998;27;20378;-55
2023/10/26 09:49:16;;;;;;;21.00;14.23;;;;;;;;;;5125502;27;20055;-57
2023/10/26 09:51:43;;;;;;;25.48;15.50;;;;;;;;;;5125458;27;20123;-57
2023/10/26 09:54:10;;;;;;;22.58;15.15;;;;;;;;;;5125007;27;20063;-57
2023/10/26 09:56:38;;;;;;;22.23;15.70;;;;;;;;;;5127426;27;20104;-57
2023/10/26 09:59:05;;;;;;;20.70;14.38;;;;;;;;;;5128435;27;20056;-56
2023/10/26 10:01:33;;;;;;;20.58;14.63;;;;;;;;;;5141706;27;20047;-56
2023/10/26 10:04:00;;;;;;;24.08;14.50;;;;;;;;;;5139170;27;20100;-58
2023/10/26 10:06:42;;;;;;;24.13;14.52;;;;;;;;;;5114507;27;20055;-57
2023/10/26 10:09:10;;;;;;;23.80;14.57;;;;;;;;;;5138027;27;20627;-53
2023/10/26 10:11:38;;;;;;;21.00;15.32;;;;;;;;;;5125438;27;20058;-58
2023/10/26 10:14:05;;;;;;;23.23;15.30;;;;;;;;;;5143629;27;20062;-57
2023/10/26 10:16:34;;;;;;;23.55;14.93;;;;;;;;;;5132872;27;20054;-57
2023/10/26 10:19:20;;;;;;;25.88;18.30;;;;;;;;;;5123568;27;20052;-57
2023/10/26 10:21:48;;;;;;;21.20;15.10;;;;;;;;;;5124621;27;20506;-54
2023/10/26 10:24:33;;;;;;;20.10;14.88;;;;;;;;;;5125162;27;20058;-56
2023/10/26 10:27:09;;;;;;;22.20;16.00;;;;;;;;;;5123941;27;20142;-57
2023/10/26 10:29:36;;;;;;;17.08;13.52;;;;;;;;;;5124804;27;20051;-57
2023/10/26 10:32:02;;;;;;;19.35;13.80;;;;;;;;;;5124036;27;20124;-58
2023/10/26 10:34:31;;;;;;;20.38;14.32;;;;;;;;;;5124666;27;20052;-56
2023/10/26 10:37:11;;;;;;;20.52;15.57;;;;;;;;;;5145557;27;20062;-56
2023/10/26 10:39:38;;;;;;;21.75;15.80;;;;;;;;;;5141457;27;20636;-57
2023/10/26 10:42:10;;;;;;;20.77;15.52;;;;;;;;;;5144527;27;20083;-57
2023/10/26 10:44:37;;;;;;;22.58;16.25;;;;;;;;;;5125013;27;20533;-57
2023/10/26 10:47:06;;;;;;;27.50;16.48;;;;;;;;;;5123891;27;20055;-47
2023/10/26 10:49:32;;;;;;;21.42;16.23;;;;;;;;;;5125325;27;20093;-58
2023/10/26 10:51:58;;;;;;;22.77;15.68;;;;;;;;;;5137879;27;20052;-59
2023/10/26 10:54:25;;;;;;;19.38;14.50;;;;;;;;;;5131350;27;20057;-59
2023/10/26 10:57:12;;;;;;;23.02;14.55;;;;;;;;;;5138699;27;20421;-59
2023/10/26 10:59:38;;;;;;;20.92;15.25;;;;;;;;;;5124997;27;20044;-57
2023/10/26 11:02:06;;;;;;;22.45;14.63;;;;;;;;;;5142795;27;20160;-55
2023/10/26 11:04:32;;;;;;;23.63;15.13;;;;;;;;;;5126356;27;20425;-57
2023/10/26 11:07:07;;;;;;;18.33;14.27;;;;;;;;;;5129799;27;20051;-57
2023/10/26 11:09:39;;;;;;;21.08;14.98;;;;;;;;;;5137859;27;20054;-59
2023/10/26 11:12:10;;;;;;;19.42;14.65;;;;;;;;;;5144163;27;20043;-58
2023/10/26 11:14:37;;;;;;;22.50;16.75;;;;;;;;;;5144699;27;20055;-59
2023/10/26 11:17:03;;;;;;;19.25;13.93;;;;;;;;;;5134148;27;20051;-57
2023/10/26 11:19:34;;;;;;;17.15;13.93;;;;;;;;;;5130092;27;20047;-54
2023/10/26 11:22:01;;;;;;;18.42;13.60;;;;;;;;;;5145099;27;20111;-54
2023/10/26 11:24:31;;;;;;;16.80;13.18;;;;;;;;;;5139607;27;20082;-58
2023/10/26 11:27:10;;;;;;;15.90;13.55;;;;;;;;;;5143379;27;20086;-57
2023/10/26 11:29:37;;;;;;;17.00;12.70;;;;;;;;;;5134524;27;20051;-59
2023/10/26 11:32:16;;;;;;;17.55;12.82;;;;;;;;;;5139563;27;20048;-56
2023/10/26 11:35:06;;;;;;;16.05;13.18;;;;;;;;;;5123843;27;20055;-56
2023/10/26 11:37:34;;;;;;;18.08;13.35;;;;;;;;;;5141680;27;20087;-58
2023/10/26 11:40:02;;;;;;;17.35;13.27;;;;;;;;;;5137042;27;20047;-57
2023/10/26 11:42:44;;;;;;;25.20;13.95;;;;;;;;;;5132688;27;20558;-57
2023/10/26 11:45:11;;;;;;;17.73;13.38;;;;;;;;;;5129659;27;20111;-58
2023/10/26 11:47:47;;;;;;;17.52;13.60;;;;;;;;;;5129466;27;20055;-55
2023/10/26 11:50:18;;;;;;;19.15;14.43;;;;;;;;;;5137447;27;20523;-58
2023/10/26 11:52:44;;;;;;;19.52;13.43;;;;;;;;;;5125777;27;20131;-58
2023/10/26 11:55:10;;;;;;;18.30;14.23;;;;;;;;;;5124773;27;20061;-57
2023/10/26 11:57:37;;;;;;;19.20;14.20;;;;;;;;;;5132777;27;20116;-58
2023/10/26 12:00:05;;;;;;;18.73;14.32;;;;;;;;;;5126395;27;20502;-58
2023/10/26 12:02:33;;;;;;;18.02;14.38;;;;;;;;;;5137140;27;20138;-57
2023/10/26 12:05:00;;;;;;;21.67;15.65;;;;;;;;;;5124923;27;20062;-58
2023/10/26 12:07:27;;;;;;;20.73;15.35;;;;;;;;;;5122455;27;20681;-58
2023/10/26 12:09:53;;;;;;;18.58;14.50;;;;;;;;;;5105506;27;20528;-57
2023/10/26 12:12:20;;;;;;;18.65;14.45;;;;;;;;;;5143342;27;20428;-57
2023/10/26 12:14:47;;;;;;;17.08;13.93;;;;;;;;;;5137279;27;20058;-55
2023/10/26 12:17:13;;;;;;;16.60;14.13;;;;;;;;;;5138749;27;20066;-58
2023/10/26 12:19:40;;;;;;;18.58;14.35;;;;;;;;;;5131732;27;20075;-58
2023/10/26 12:22:06;;;;;;;17.60;13.45;;;;;;;;;;5143929;27;20062;-57
2023/10/26 12:24:34;;;;;;;17.27;13.30;;;;;;;;;;5126449;27;20120;-56
2023/10/26 12:27:00;;;;;;;16.45;12.60;;;;;;;;;;5142069;27;20047;-52
2023/10/26 12:29:27;;;;;;;17.58;14.07;;;;;;;;;;5133597;27;20047;-58
2023/10/26 12:31:53;;;;;;;16.58;12.57;;;;;;;;;;5133998;27;20501;-55
2023/10/26 12:34:20;;;;;;;17.63;13.32;;;;;;;;;;5136249;27;20059;-56
2023/10/26 12:36:47;;;;;;;14.43;11.90;;;;;;;;;;5135128;27;20471;-56
2023/10/26 12:39:13;;;;;;;16.42;12.18;;;;;;;;;;5133253;27;20048;-58
2023/10/26 12:41:41;;;;;;;18.33;12.25;;;;;;;;;;5123460;27;20095;-57
2023/10/26 12:44:07;;;;;;;20.33;13.32;;;;;;;;;;5122486;27;20143;-56
2023/10/26 12:46:34;;;;;;;16.17;12.57;;;;;;;;;;5130159;27;20101;-58
2023/10/26 12:49:00;;;;;;;16.67;12.23;;;;;;;;;;5135042;27;20505;-57
2023/10/26 12:51:27;;;;;;;15.48;12.50;;;;;;;;;;5126839;27;20047;-58
2023/10/26 12:53:53;;;;;;;15.68;11.88;;;;;;;;;;5137342;27;20471;-58
2023/10/26 12:56:25;;;;;;;15.70;11.50;;;;;;;;;;5121707;27;20513;-59
2023/10/26 12:58:51;;;;;;;15.35;12.65;;;;;;;;;;5128456;27;20057;-57
2023/10/26 13:01:18;;;;;;;16.10;11.57;;;;;;;;;;5124929;27;20059;-57
2023/10/26 13:03:44;;;;;;;16.75;11.50;;;;;;;;;;5122278;27;20059;-56
2023/10/26 13:06:11;;;;;;;17.67;12.07;;;;;;;;;;5123968;27;20057;-57
2023/10/26 13:08:37;;;;;;;20.55;13.50;;;;;;;;;;5135101;27;20163;-55
2023/10/26 13:11:04;;;;;;;17.60;13.57;;;;;;;;;;5133175;27;20502;-56
2023/10/26 13:13:30;;;;;;;18.65;13.45;;;;;;;;;;5143897;27;21024;-57
2023/10/26 13:15:57;;;;;;;15.93;12.35;;;;;;;;;;5140627;27;20055;-57
2023/10/26 13:18:23;;;;;;;14.85;11.82;;;;;;;;;;5128187;27;20044;-58
2023/10/26 13:20:49;;;;;;;13.23;10.70;;;;;;;;;;5135943;27;20096;-58
2023/10/26 13:23:17;;;;;;;14.10;11.05;;;;;;;;;;5145788;27;20115;-58
2023/10/26 13:25:44;;;;;;;13.65;11.02;;;;;;;;;;5126628;27;20058;-58
2023/10/26 13:28:12;;;;;;;12.63;10.82;;;;;;;;;;5125340;27;20047;-58
2023/10/26 13:30:38;;;;;;;12.70;10.23;;;;;;;;;;5144659;27;20101;-57
2023/10/26 13:33:04;;;;;;;14.10;10.70;;;;;;;;;;5132763;27;20104;-55
2023/10/26 13:35:34;;;;;;;13.93;10.18;;;;;;;;;;5128290;27;20142;-55
2023/10/26 13:38:01;;;;;;;15.68;11.52;;;;;;;;;;5127826;27;20133;-58
2023/10/26 13:40:27;;;;;;;13.82;9.98;;;;;;;;;;5141670;27;20059;-56
2023/10/26 13:42:53;;;;;;;14.75;10.65;;;;;;;;;;5139270;27;20537;-57
2023/10/26 13:45:20;;;;;;;11.98;10.32;;;;;;;;;;5130552;27;20047;-57
2023/10/26 13:47:49;;;;;;;15.57;11.05;;;;;;;;;;5129257;27;20142;-55
2023/10/26 13:50:15;;;;;;;14.63;10.68;;;;;;;;;;5142989;27;20161;-58
2023/10/26 13:52:42;;;;;;;14.85;11.27;;;;;;;;;;5135451;27;20428;-57
2023/10/26 13:55:08;;;;;;;12.82;10.55;;;;;;;;;;5128417;27;20101;-57
2023/10/26 13:57:35;;;;;;;21.70;11.23;;;;;;;;;;5130355;27;20452;-56
2023/10/26 14:00:02;;;;;;;18.45;12.48;;;;;;;;;;5125389;27;20060;-57
2023/10/26 14:02:29;;;;;;;15.15;11.13;;;;;;;;;;5124965;27;20135;-57
2023/10/26 14:04:55;;;;;;;17.92;12.35;;;;;;;;;;5128630;27;20550;-57
2023/10/26 14:07:23;;;;;;;15.65;12.07;;;;;;;;;;5138157;27;20540;-57
2023/10/26 14:09:49;;;;;;;16.17;12.23;;;;;;;;;;5133340;27;20055;-56
2023/10/26 14:12:18;;;;;;;16.25;12.60;;;;;;;;;;5143883;27;20432;-58
2023/10/26 14:14:44;;;;;;;17.00;11.90;;;;;;;;;;5143410;27;20058;-55
2023/10/26 14:17:11;;;;;;;15.48;12.52;;;;;;;;;;5142632;27;20051;-57
2023/10/26 14:19:37;;;;;;;15.70;11.57;;;;;;;;;;5145532;27;20107;-57